createdAt,value
2018-06-25T00:01:28.979Z,5.50
2018-06-25T00:03:57.808Z,5.30
2018-06-25T00:06:26.651Z,4.53
2018-06-25T00:08:55.501Z,4.77
2018-06-25T00:11:24.275Z,5.00
2018-06-25T00:13:53.095Z,4.83
2018-06-25T00:16:21.940Z,4.13
2018-06-25T00:18:50.777Z,5.30
2018-06-25T00:21:19.622Z,4.63
2018-06-25T00:23:48.455Z,4.33
2018-06-25T00:26:17.323Z,4.37
2018-06-25T00:28:46.136Z,5.00
2018-06-25T00:31:15.071Z,4.27
2018-06-25T00:33:43.884Z,4.90
2018-06-25T00:36:12.600Z,5.53
2018-06-25T00:38:41.461Z,5.13
2018-06-25T00:41:10.347Z,5.67
2018-06-25T00:43:39.181Z,5.10
2018-06-25T00:46:08.119Z,4.90
2018-06-25T00:48:36.945Z,5.90
2018-06-25T00:51:05.919Z,5.73
2018-06-25T00:53:34.738Z,5.97
2018-06-25T00:56:03.659Z,4.97
2018-06-25T00:58:43.853Z,4.80
2018-06-25T01:01:13.091Z,5.27
2018-06-25T01:03:42.008Z,5.20
2018-06-25T01:06:10.907Z,4.87
2018-06-25T01:08:39.641Z,5.23
2018-06-25T01:11:08.490Z,5.43
2018-06-25T01:13:37.214Z,4.63
2018-06-25T01:16:06.097Z,4.80
2018-06-25T01:18:34.953Z,5.20
2018-06-25T01:21:03.851Z,5.80
2018-06-25T01:23:32.696Z,5.90
2018-06-25T01:26:01.521Z,5.07
2018-06-25T01:28:30.408Z,5.77
2018-06-25T01:30:59.320Z,6.07
2018-06-25T01:33:28.019Z,4.73
2018-06-25T01:35:56.898Z,4.23
2018-06-25T01:38:25.697Z,5.13
2018-06-25T01:40:54.530Z,6.03
2018-06-25T01:43:23.406Z,5.50
2018-06-25T01:45:52.231Z,5.30
2018-06-25T01:48:20.988Z,4.43
2018-06-25T01:50:49.838Z,5.30
2018-06-25T01:53:18.676Z,5.13
2018-06-25T01:55:47.519Z,5.37
2018-06-25T01:58:16.355Z,5.40
2018-06-25T02:00:45.300Z,4.30
2018-06-25T02:03:14.193Z,5.07
2018-06-25T02:05:43.052Z,4.70
2018-06-25T02:08:11.774Z,4.90
2018-06-25T02:10:40.602Z,4.90
2018-06-25T02:13:09.440Z,5.07
2018-06-25T02:15:38.129Z,5.20
2018-06-25T02:18:06.938Z,4.50
2018-06-25T02:20:35.791Z,5.00
2018-06-25T02:23:04.648Z,5.23
2018-06-25T02:25:33.455Z,4.40
2018-06-25T02:28:02.295Z,4.30
2018-06-25T02:30:31.294Z,5.43
2018-06-25T02:33:00.152Z,4.03
2018-06-25T02:35:28.975Z,5.10
2018-06-25T02:37:57.841Z,4.60
2018-06-25T02:40:26.673Z,3.70
2018-06-25T02:42:56.615Z,3.77
2018-06-25T02:45:25.354Z,4.67
2018-06-25T02:47:54.249Z,4.13
2018-06-25T02:50:23.081Z,4.40
2018-06-25T02:52:51.923Z,4.90
2018-06-25T02:55:20.804Z,4.30
2018-06-25T02:57:49.757Z,4.40
2018-06-25T03:00:18.565Z,5.00
2018-06-25T03:02:47.459Z,4.87
2018-06-25T03:05:16.363Z,4.57
2018-06-25T03:07:45.479Z,5.10
2018-06-25T03:10:14.392Z,4.60
2018-06-25T03:12:43.342Z,4.50
2018-06-25T03:15:12.180Z,4.90
2018-06-25T03:17:41.095Z,4.07
2018-06-25T03:20:10.072Z,5.23
2018-06-25T03:22:39.076Z,4.53
2018-06-25T03:25:07.956Z,4.87
2018-06-25T03:27:36.751Z,4.50
2018-06-25T03:30:05.591Z,3.97
2018-06-25T03:32:34.452Z,4.23
2018-06-25T03:35:03.389Z,4.17
2018-06-25T03:37:33.171Z,4.43
2018-06-25T03:40:02.015Z,4.37
2018-06-25T03:42:30.967Z,4.50
2018-06-25T03:44:59.807Z,4.63
2018-06-25T03:47:28.675Z,4.20
2018-06-25T03:49:57.512Z,4.60
2018-06-25T03:52:26.419Z,5.27
2018-06-25T03:54:55.267Z,4.40
2018-06-25T03:57:23.990Z,4.40
2018-06-25T03:59:52.830Z,4.00
2018-06-25T04:02:21.772Z,4.27
2018-06-25T04:04:50.656Z,4.73
2018-06-25T04:07:19.604Z,5.10
2018-06-25T04:09:48.539Z,4.27
2018-06-25T04:12:17.420Z,5.30
2018-06-25T04:14:46.130Z,4.77
2018-06-25T04:17:14.984Z,5.00
2018-06-25T04:19:43.807Z,4.70
2018-06-25T04:22:12.662Z,5.20
2018-06-25T04:24:41.955Z,5.23
2018-06-25T04:27:10.890Z,5.27
2018-06-25T04:29:39.855Z,5.97
2018-06-25T04:32:09.024Z,4.80
2018-06-25T04:34:38.044Z,5.33
2018-06-25T04:37:06.923Z,5.47
2018-06-25T04:39:35.660Z,5.33
2018-06-25T04:42:04.645Z,4.93
2018-06-25T04:44:33.527Z,5.40
2018-06-25T04:47:02.370Z,5.90
2018-06-25T04:49:31.206Z,5.40
2018-06-25T04:52:00.101Z,5.30
2018-06-25T04:54:29.396Z,5.20
2018-06-25T04:56:58.242Z,5.53
2018-06-25T04:59:27.201Z,5.30
2018-06-25T05:01:56.167Z,5.67
2018-06-25T05:04:25.075Z,6.30
2018-06-25T05:06:54.368Z,5.40
2018-06-25T05:09:23.285Z,5.90
2018-06-25T05:11:52.865Z,5.40
2018-06-25T05:14:21.779Z,5.37
2018-06-25T05:16:50.701Z,5.73
2018-06-25T05:19:19.457Z,5.80
2018-06-25T05:21:48.483Z,4.80
2018-06-25T05:24:17.404Z,5.20
2018-06-25T05:26:46.225Z,5.57
2018-06-25T05:29:15.133Z,5.47
2018-06-25T05:31:44.019Z,5.60
2018-06-25T05:34:12.899Z,6.10
2018-06-25T05:36:41.964Z,5.63
2018-06-25T05:39:11.689Z,5.13
2018-06-25T05:41:41.419Z,5.30
2018-06-25T05:44:10.507Z,4.10
2018-06-25T05:46:39.338Z,4.60
2018-06-25T05:49:08.503Z,4.53
2018-06-25T05:51:37.375Z,4.97
2018-06-25T05:54:06.219Z,4.80
2018-06-25T05:56:35.075Z,5.10
2018-06-25T05:59:03.995Z,4.60
2018-06-25T06:01:32.949Z,5.00
2018-06-25T06:04:02.772Z,4.87
2018-06-25T06:06:31.598Z,5.53
2018-06-25T06:09:00.442Z,5.83
2018-06-25T06:11:29.403Z,5.70
2018-06-25T06:13:58.295Z,5.60
2018-06-25T06:16:27.081Z,5.33
2018-06-25T06:18:56.366Z,4.93
2018-06-25T06:21:25.273Z,5.40
2018-06-25T06:23:55.063Z,4.60
2018-06-25T06:26:24.063Z,5.50
2018-06-25T06:28:52.913Z,5.43
2018-06-25T06:31:21.859Z,5.53
2018-06-25T06:33:50.682Z,5.10
2018-06-25T06:36:19.507Z,5.60
2018-06-25T06:38:48.376Z,5.60
2018-06-25T06:41:17.352Z,4.77
2018-06-25T06:43:46.170Z,5.27
2018-06-25T06:46:15.007Z,5.40
2018-06-25T06:48:43.838Z,5.07
2018-06-25T06:51:12.756Z,5.63
2018-06-25T06:53:41.619Z,5.40
2018-06-25T06:56:10.440Z,5.30
2018-06-25T06:58:39.173Z,5.87
2018-06-25T07:01:08.067Z,5.37
2018-06-25T07:03:36.936Z,5.20
2018-06-25T07:06:05.828Z,5.03
2018-06-25T07:08:34.684Z,4.60
2018-06-25T07:11:03.815Z,4.90
2018-06-25T07:13:32.684Z,3.57
2018-06-25T07:16:01.410Z,4.23
2018-06-25T07:18:30.292Z,5.53
2018-06-25T07:20:59.132Z,4.70
2018-06-25T07:23:27.921Z,5.73
2018-06-25T07:25:56.782Z,5.10
2018-06-25T07:28:25.619Z,5.27
2018-06-25T07:30:55.346Z,4.67
2018-06-25T07:33:24.147Z,4.40
2018-06-25T07:35:53.480Z,4.90
2018-06-25T07:38:22.314Z,4.37
2018-06-25T07:40:51.222Z,5.10
2018-06-25T07:43:20.044Z,4.20
2018-06-25T07:45:48.907Z,5.00
2018-06-25T07:48:17.751Z,5.27
2018-06-25T07:50:46.603Z,4.47
2018-06-25T07:53:15.487Z,4.40
2018-06-25T07:55:44.314Z,3.93
2018-06-25T07:58:13.167Z,4.53
2018-06-25T08:00:42.024Z,4.17
2018-06-25T08:03:10.884Z,5.43
2018-06-25T08:05:39.741Z,3.97
2018-06-25T08:08:08.624Z,4.60
2018-06-25T08:10:37.501Z,4.53
2018-06-25T08:13:06.428Z,4.40
2018-06-25T08:15:35.320Z,4.73
2018-06-25T08:18:04.214Z,4.37
2018-06-25T08:20:33.054Z,4.70
2018-06-25T08:23:02.283Z,3.87
2018-06-25T08:25:31.170Z,3.07
2018-06-25T08:28:00.076Z,2.10
2018-06-25T08:30:29.139Z,2.63
2018-06-25T08:32:58.039Z,2.77
2018-06-25T08:35:27.155Z,3.23
2018-06-25T08:37:55.993Z,3.23
2018-06-25T08:40:24.817Z,2.50
2018-06-25T08:42:53.752Z,2.97
2018-06-25T08:45:22.639Z,3.13
2018-06-25T08:47:51.544Z,3.90
2018-06-25T08:50:20.314Z,2.33
2018-06-25T08:52:49.259Z,3.10
2018-06-25T08:55:18.176Z,3.70
2018-06-25T08:57:47.040Z,3.13
2018-06-25T09:00:15.891Z,3.80
2018-06-25T09:02:45.819Z,2.90
2018-06-25T09:05:14.750Z,3.37
2018-06-25T09:07:43.544Z,2.17
2018-06-25T09:10:12.434Z,2.27
2018-06-25T09:12:43.323Z,3.40
2018-06-25T09:15:12.220Z,3.10
2018-06-25T09:17:40.925Z,3.00
2018-06-25T09:20:09.774Z,2.27
2018-06-25T09:22:38.587Z,3.33
2018-06-25T09:25:07.435Z,2.40
2018-06-25T09:27:41.952Z,2.40
2018-06-25T09:30:10.791Z,2.50
2018-06-25T09:32:39.791Z,3.37
2018-06-25T09:35:08.724Z,2.80
2018-06-25T09:37:37.684Z,2.50
2018-06-25T09:40:07.191Z,2.33
2018-06-25T09:42:36.182Z,2.90
2018-06-25T09:45:07.200Z,2.60
2018-06-25T09:47:36.084Z,2.20
2018-06-25T09:50:04.992Z,2.40
2018-06-25T09:52:33.876Z,2.50
2018-06-25T09:55:02.754Z,2.40
2018-06-25T09:57:31.446Z,1.97
2018-06-25T10:00:00.195Z,2.70
2018-06-25T10:02:29.128Z,1.97
2018-06-25T10:04:57.962Z,2.27
2018-06-25T10:07:26.795Z,2.63
2018-06-25T10:09:55.611Z,2.30
2018-06-25T10:12:24.516Z,2.30
2018-06-25T10:14:53.348Z,2.53
2018-06-25T10:17:22.211Z,2.67
2018-06-25T10:19:51.040Z,2.43
2018-06-25T10:22:19.936Z,2.67
2018-06-25T10:24:48.759Z,2.13
2018-06-25T10:27:17.608Z,2.03
2018-06-25T10:29:46.471Z,1.97
2018-06-25T10:32:15.408Z,1.67
2018-06-25T10:34:44.223Z,1.53
2018-06-25T10:37:13.067Z,2.07
2018-06-25T10:39:41.903Z,2.63
2018-06-25T10:42:10.804Z,2.07
2018-06-25T10:44:39.619Z,2.40
2018-06-25T10:47:08.464Z,2.33
2018-06-25T10:49:37.348Z,2.97
2018-06-25T10:52:06.342Z,2.23
2018-06-25T10:54:35.187Z,2.23
2018-06-25T10:57:04.062Z,2.30
2018-06-25T10:59:32.989Z,3.40
2018-06-25T11:02:01.890Z,3.17
2018-06-25T11:04:30.746Z,2.77
2018-06-25T11:06:59.705Z,3.10
2018-06-25T11:09:28.543Z,2.70
2018-06-25T11:11:57.474Z,2.53
2018-06-25T11:14:26.339Z,2.97
2018-06-25T11:16:55.148Z,3.83
2018-06-25T11:19:23.982Z,2.40
2018-06-25T11:21:56.299Z,2.70
2018-06-25T11:24:25.135Z,2.30
2018-06-25T11:26:54.033Z,2.47
2018-06-25T11:29:22.836Z,2.70
2018-06-25T11:31:51.766Z,2.73
2018-06-25T11:34:20.626Z,2.43
2018-06-25T11:36:49.648Z,2.33
2018-06-25T11:39:18.456Z,2.47
2018-06-25T11:41:47.354Z,2.50
2018-06-25T11:44:16.153Z,2.63
2018-06-25T11:46:45.012Z,2.33
2018-06-25T11:49:13.843Z,2.40
2018-06-25T11:51:42.788Z,2.53
2018-06-25T11:54:11.626Z,2.80
2018-06-25T11:56:40.475Z,2.30
2018-06-25T11:59:09.304Z,2.40
2018-06-25T12:01:38.283Z,2.50
2018-06-25T12:04:07.123Z,2.10
2018-06-25T12:06:35.946Z,2.40
2018-06-25T12:09:07.567Z,2.37
2018-06-25T12:11:36.467Z,2.40
2018-06-25T12:14:05.430Z,2.80
2018-06-25T12:16:34.349Z,3.70
2018-06-25T12:19:03.233Z,4.80
2018-06-25T12:21:32.115Z,5.20
2018-06-25T12:24:00.947Z,4.53
2018-06-25T12:26:30.063Z,4.30
2018-06-25T12:28:58.894Z,4.50
2018-06-25T12:31:27.848Z,4.87
2018-06-25T12:33:56.691Z,4.77
2018-06-25T12:36:25.530Z,3.90
2018-06-25T12:38:54.407Z,3.80
2018-06-25T12:41:23.341Z,4.60
2018-06-25T12:43:52.247Z,4.53
2018-06-25T12:46:21.074Z,4.33
2018-06-25T12:48:50.039Z,4.30
2018-06-25T12:51:18.956Z,4.60
2018-06-25T12:53:47.795Z,4.47
2018-06-25T12:56:16.683Z,4.33
2018-06-25T12:58:45.499Z,4.87
2018-06-25T13:01:14.411Z,4.83
2018-06-25T13:03:43.189Z,3.50
2018-06-25T13:06:12.031Z,3.00
2018-06-25T13:08:40.888Z,3.23
2018-06-25T13:11:09.784Z,3.10
2018-06-25T13:13:38.680Z,3.00
2018-06-25T13:16:07.658Z,3.30
2018-06-25T13:18:36.413Z,2.73
2018-06-25T13:21:05.495Z,3.50
2018-06-25T13:23:34.335Z,2.10
2018-06-25T13:26:03.291Z,2.90
2018-06-25T13:28:32.107Z,3.30
2018-06-25T13:31:00.993Z,3.17
2018-06-25T13:33:29.851Z,2.70
2018-06-25T13:35:58.728Z,3.17
2018-06-25T13:38:27.575Z,2.63
2018-06-25T13:40:56.487Z,3.20
2018-06-25T13:43:25.329Z,3.13
2018-06-25T13:45:54.154Z,4.30
2018-06-25T13:48:23.024Z,3.60
2018-06-25T13:50:52.016Z,2.67
2018-06-25T13:53:20.880Z,2.60
2018-06-25T13:55:49.704Z,2.93
2018-06-25T13:58:18.543Z,3.70
2018-06-25T14:00:47.397Z,2.73
2018-06-25T14:03:16.241Z,2.90
2018-06-25T14:05:45.076Z,2.57
2018-06-25T14:08:14.044Z,3.00
2018-06-25T14:10:42.302Z,2.80
2018-06-25T14:13:11.050Z,2.60
2018-06-25T14:15:39.983Z,2.60
2018-06-25T14:18:08.741Z,2.23
2018-06-25T14:20:37.692Z,2.70
2018-06-25T14:23:06.466Z,2.43
2018-06-25T14:26:07.479Z,2.60
2018-06-25T14:28:36.961Z,2.63
2018-06-25T14:31:11.343Z,2.63
2018-06-25T14:33:40.686Z,2.57
2018-06-25T14:36:10.157Z,2.60
2018-06-25T14:38:45.695Z,2.80
2018-06-25T14:41:14.660Z,2.40
2018-06-25T14:43:43.519Z,2.83
2018-06-25T14:46:12.356Z,2.40
2018-06-25T14:48:41.110Z,2.33
2018-06-25T14:51:10.095Z,2.27
2018-06-25T14:53:39.064Z,2.37
2018-06-25T14:56:07.961Z,2.20
2018-06-25T14:58:36.807Z,2.40
2018-06-25T15:01:05.842Z,2.27
2018-06-25T15:03:34.663Z,2.07
2018-06-25T15:06:03.573Z,2.00
2018-06-25T15:08:32.397Z,1.90
2018-06-25T15:11:01.296Z,2.20
2018-06-25T15:13:30.159Z,1.60
2018-06-25T15:15:59.009Z,3.67
2018-06-25T15:18:28.015Z,2.73
2018-06-25T15:20:56.968Z,5.50
2018-06-25T15:23:25.811Z,2.27
2018-06-25T15:25:54.659Z,2.00
2018-06-25T15:28:23.514Z,2.07
2018-06-25T15:30:52.349Z,18.30
2018-06-25T15:33:21.190Z,12.30
2018-06-25T15:35:50.148Z,2.60
2018-06-25T15:38:18.951Z,4.50
2018-06-25T15:40:47.783Z,2.10
2018-06-25T15:43:16.644Z,2.90
2018-06-25T15:45:45.500Z,2.13
2018-06-25T15:48:14.327Z,2.30
2018-06-25T15:50:43.172Z,2.13
2018-06-25T15:53:11.987Z,2.37
2018-06-25T15:55:40.731Z,2.70
2018-06-25T15:58:09.563Z,3.63
2018-06-25T16:00:38.317Z,4.40
2018-06-25T16:03:07.163Z,3.03
2018-06-25T16:05:36.035Z,3.30
2018-06-25T16:08:04.844Z,5.87
2018-06-25T16:10:33.719Z,2.53
2018-06-25T16:13:02.648Z,2.77
2018-06-25T16:15:31.528Z,2.47
2018-06-25T16:18:00.384Z,2.07
2018-06-25T16:20:29.230Z,1.97
2018-06-25T16:22:58.114Z,2.07
2018-06-25T16:25:27.089Z,2.30
2018-06-25T16:27:56.014Z,2.90
2018-06-25T16:30:24.916Z,3.70
2018-06-25T16:32:54.016Z,4.57
2018-06-25T16:35:22.944Z,2.80
2018-06-25T16:37:51.836Z,3.30
2018-06-25T16:40:20.992Z,2.17
2018-06-25T16:42:50.440Z,2.63
2018-06-25T16:45:19.712Z,2.80
2018-06-25T16:47:48.648Z,2.60
2018-06-25T16:50:17.548Z,1.83
2018-06-25T16:52:46.524Z,2.40
2018-06-25T16:55:15.673Z,2.17
2018-06-25T16:57:44.517Z,2.10
2018-06-25T17:00:13.351Z,2.33
2018-06-25T17:02:43.256Z,2.53
2018-06-25T17:05:12.152Z,2.40
2018-06-25T17:07:41.037Z,2.90
2018-06-25T17:10:09.917Z,3.90
2018-06-25T17:12:38.773Z,2.97
2018-06-25T17:15:07.639Z,3.20
2018-06-25T17:17:36.534Z,3.37
2018-06-25T17:20:05.321Z,5.90
2018-06-25T17:22:34.115Z,3.00
2018-06-25T17:25:03.083Z,2.90
2018-06-25T17:27:31.920Z,3.23
2018-06-25T17:30:00.792Z,3.20
2018-06-25T17:32:29.731Z,3.77
2018-06-25T17:34:58.584Z,4.30
2018-06-25T17:37:27.437Z,3.30
2018-06-25T17:39:56.380Z,2.63
2018-06-25T17:42:25.559Z,2.47
2018-06-25T17:44:54.398Z,2.83
2018-06-25T17:47:23.300Z,2.80
2018-06-25T17:49:52.184Z,2.80
2018-06-25T17:52:21.276Z,2.97
2018-06-25T17:54:50.149Z,2.70
2018-06-25T17:57:19.069Z,2.13
2018-06-25T17:59:47.981Z,2.60
2018-06-25T18:02:16.954Z,2.70
2018-06-25T18:04:45.847Z,2.90
2018-06-25T18:07:14.712Z,2.37
2018-06-25T18:09:43.583Z,2.70
2018-06-25T18:12:12.500Z,2.63
2018-06-25T18:14:41.439Z,2.80
2018-06-25T18:17:10.999Z,2.67
2018-06-25T18:19:40.491Z,2.90
2018-06-25T18:22:09.373Z,2.63
2018-06-25T18:24:39.033Z,2.70
2018-06-25T18:27:08.502Z,3.50
2018-06-25T18:29:37.447Z,3.20
2018-06-25T18:32:06.489Z,3.47
2018-06-25T18:34:35.369Z,3.60
2018-06-25T18:37:05.052Z,2.50
2018-06-25T18:39:34.204Z,3.10
2018-06-25T18:42:03.836Z,3.10
2018-06-25T18:44:33.503Z,2.53
2018-06-25T18:47:02.364Z,3.10
2018-06-25T18:49:32.507Z,2.37
2018-06-25T18:52:02.150Z,2.40
2018-06-25T18:54:31.789Z,2.50
2018-06-25T18:57:00.771Z,2.67
2018-06-25T18:59:29.906Z,2.37
2018-06-25T19:01:59.443Z,2.30
2018-06-25T19:04:29.990Z,2.43
2018-06-25T19:06:59.550Z,3.30
2018-06-25T19:09:28.411Z,3.33
2018-06-25T19:11:57.475Z,3.47
2018-06-25T19:14:28.558Z,2.97
2018-06-25T19:16:57.428Z,2.90
2018-06-25T19:19:27.060Z,3.20
2018-06-25T19:21:56.020Z,2.93
2018-06-25T19:24:25.695Z,3.40
2018-06-25T19:26:56.863Z,4.13
2018-06-25T19:29:25.747Z,3.80
2018-06-25T19:31:54.723Z,3.30
2018-06-25T19:34:23.607Z,3.50
2018-06-25T19:36:52.646Z,3.30
2018-06-25T19:39:22.108Z,3.37
2018-06-25T19:41:51.945Z,3.77
2018-06-25T19:44:20.819Z,3.40
2018-06-25T19:46:50.346Z,3.50
2018-06-25T19:49:19.967Z,3.53
2018-06-25T19:51:50.279Z,3.70
2018-06-25T19:54:19.242Z,3.70
2018-06-25T19:56:48.688Z,2.80
2018-06-25T19:59:17.582Z,3.10
2018-06-25T20:01:46.584Z,3.63
2018-06-25T20:04:15.583Z,3.20
2018-06-25T20:06:44.419Z,3.77
2018-06-25T20:09:13.464Z,3.13
2018-06-25T20:11:42.391Z,3.80
2018-06-25T20:14:11.462Z,3.53
2018-06-25T20:16:41.116Z,3.50
2018-06-25T20:19:10.024Z,3.70
2018-06-25T20:21:39.990Z,3.40
2018-06-25T20:24:08.983Z,4.07
2018-06-25T20:26:38.076Z,3.67
2018-06-25T20:29:07.106Z,4.10
2018-06-25T20:31:36.107Z,3.47
2018-06-25T20:34:05.255Z,3.57
2018-06-25T20:36:34.226Z,3.10
2018-06-25T20:39:05.253Z,3.70
2018-06-25T20:41:34.086Z,3.17
2018-06-25T20:44:03.723Z,3.53
2018-06-25T20:46:32.715Z,4.20
2018-06-25T20:49:01.560Z,3.30
2018-06-25T20:51:30.401Z,3.67
2018-06-25T20:53:59.313Z,3.07
2018-06-25T20:56:28.199Z,3.80
2018-06-25T20:58:57.136Z,3.87
2018-06-25T21:01:26.112Z,3.30
2018-06-25T21:03:54.953Z,3.90
2018-06-25T21:06:23.860Z,3.43
2018-06-25T21:08:52.759Z,3.60
2018-06-25T21:11:21.926Z,3.90
2018-06-25T21:13:50.779Z,3.77
2018-06-25T21:16:19.724Z,3.60
2018-06-25T21:18:48.580Z,3.13
2018-06-25T21:21:17.710Z,3.27
2018-06-25T21:23:47.232Z,3.80
2018-06-25T21:26:16.099Z,3.60
2018-06-25T21:28:44.999Z,3.07
2018-06-25T21:31:13.826Z,3.10
2018-06-25T21:33:42.582Z,3.50
2018-06-25T21:36:11.460Z,3.53
2018-06-25T21:38:40.450Z,3.10
2018-06-25T21:41:09.371Z,3.90
2018-06-25T21:43:38.231Z,3.73
2018-06-25T21:46:07.075Z,3.37
2018-06-25T21:48:35.916Z,3.90
2018-06-25T21:51:04.799Z,3.00
2018-06-25T21:53:33.619Z,3.57
2018-06-25T21:56:02.481Z,2.90
2018-06-25T21:58:31.378Z,2.70
2018-06-25T22:01:00.277Z,2.90
2018-06-25T22:03:29.123Z,3.20
2018-06-25T22:05:58.028Z,3.00
2018-06-25T22:08:26.859Z,3.30
2018-06-25T22:10:55.823Z,3.20
2018-06-25T22:13:24.687Z,3.13
2018-06-25T22:15:53.555Z,3.33
2018-06-25T22:18:22.404Z,3.47
2018-06-25T22:20:51.259Z,3.67
2018-06-25T22:23:20.144Z,3.17
2018-06-25T22:25:48.995Z,2.83
2018-06-25T22:28:17.904Z,3.03
2018-06-25T22:30:46.752Z,3.90
2018-06-25T22:33:15.608Z,2.73
2018-06-25T22:35:44.414Z,3.13
2018-06-25T22:38:13.270Z,3.20
2018-06-25T22:40:42.124Z,3.30
2018-06-25T22:43:10.963Z,3.07
2018-06-25T22:45:39.791Z,2.97
2018-06-25T22:48:08.668Z,3.50
2018-06-25T22:50:37.535Z,3.03
2018-06-25T22:53:06.427Z,3.07
2018-06-25T22:55:36.279Z,2.67
2018-06-25T22:58:05.156Z,3.00
2018-06-25T23:00:33.991Z,2.93
2018-06-25T23:03:02.991Z,3.33
2018-06-25T23:05:31.831Z,2.60
2018-06-25T23:08:00.683Z,2.77
2018-06-25T23:10:29.515Z,3.40
2018-06-25T23:12:58.575Z,2.73
2018-06-25T23:15:27.371Z,3.20
2018-06-25T23:17:56.216Z,3.23
2018-06-25T23:20:25.039Z,2.60
2018-06-25T23:22:57.029Z,3.83
2018-06-25T23:25:26.222Z,3.00
2018-06-25T23:27:55.063Z,3.27
2018-06-25T23:30:23.912Z,3.20
2018-06-25T23:32:52.781Z,3.33
2018-06-25T23:35:21.648Z,2.47
2018-06-25T23:37:50.369Z,3.17
2018-06-25T23:40:19.172Z,3.20
2018-06-25T23:42:48.099Z,2.80
2018-06-25T23:45:16.957Z,3.10
2018-06-25T23:47:45.765Z,3.40
2018-06-25T23:50:14.560Z,2.80
2018-06-25T23:52:43.408Z,3.17
2018-06-25T23:55:12.260Z,3.90
2018-06-25T23:57:41.080Z,2.57
